Search for airport 
image banner adimage banner adimage banner ad
image banner ad

84CL - Century City

Located in Los Angeles, United States

ICAO - 84CL, IATA - CCD

Data provided by Airmate  

General information

Coordinates: N34°3'40" W118°25'3"
Elevation is 473 feet MSL.
Magnetic variation is 14° East
View others Airports in California

Operational data

Special qualification required
Current time UTC:
Current local time:
Weather at : KSMO - Santa Monica Muni ( 6 km )
METAR: KSMO 211251Z AUTO 23003KT 9SM OVC007 17/14 A2996 RMK AO2 SLP145 T01670144
TAF: KSMO 211124Z 2112/2212 VRB03KT P6SM OVC009 FM211700 23005KT P6SM BKN012 FM211900 23010KT P6SM SCT015 FM220200 24006KT P6SM SCT007 FM220400 VRB03KT P6SM BKN007 FM220900 VRB03KT P6SM OVC012
View NOTAMs / SUP AIP / TFR affecting this airport [VIEW]
Communications frequencies: [VIEW]

Runways:

Airport contact information

Address: Los Angeles United States

Satellite view of 84CL